Decoded Metar for GMMX (MARRAKECH in MOROCCO) (IATA:RAK) | Meteo·Mobile Aviation Weather
aviador You're here:

GMMX Decoded Metar

MARRAKECH in MOROCCO
Report Time2018-10-19 09:00:00
UTC Time2018-10-19 09:31:07
Flight Rules vfr VFR
Wind230° at 10 kt
W.Decomp.*RWY 28: 6.8 kt HW 7.3 kt LCW
W.Rank230° ranks 2
Current wind is above 230° avg. (5.3)
Visibility9999 m
Phenomena:N/A
Clouds:Scattered 030 Hf
Scattered 086 Hf
Expected CloudBase > 2,800 ft AGL from Temp-Dew spread
CeilingNone
Temp18°C (ISA +6)
Dew Point11°C (64% RH)
AAT14.7°C
QNH1012 hPa
Density Alt2,451 ft
Elevation1,529 ft
Report Wrong Elevation
Raw Report
GMMX 190900Z 23010KT 9999 SCT030 SCT086 18/11 Q1012 NOSIG=

Extra information for GMMX:More info

Metar Taf Metar & Taf Last 4 Metars F.Rules Stats Wind Profile Meteogram Temp Stats Airport Information Weather charts Add Link Nearby VenuesMetar ALERT Operation Metar Decoded Social comments